createdAt,value
2023-02-16T00:01:52.692Z,23.10
2023-02-16T00:04:21.353Z,28.63
2023-02-16T00:06:48.879Z,21.63
2023-02-16T00:09:16.413Z,19.20
2023-02-16T00:12:02.215Z,18.33
2023-02-16T00:14:29.413Z,17.27
2023-02-16T00:16:58.453Z,19.40
2023-02-16T00:19:40.050Z,18.43
2023-02-16T00:22:07.674Z,20.77
2023-02-16T00:24:34.582Z,18.80
2023-02-16T00:27:01.548Z,19.23
2023-02-16T00:29:35.138Z,17.77
2023-02-16T00:32:03.851Z,18.77
2023-02-16T00:34:34.371Z,21.20
2023-02-16T00:37:07.057Z,19.70
2023-02-16T00:39:33.997Z,16.87
2023-02-16T00:42:06.345Z,17.33
2023-02-16T00:44:38.854Z,21.33
2023-02-16T00:47:14.312Z,20.03
2023-02-16T00:49:41.036Z,17.40
2023-02-16T00:52:27.449Z,16.77
2023-02-16T00:54:54.181Z,18.10
2023-02-16T00:57:21.170Z,18.83
2023-02-16T00:59:54.250Z,20.80
2023-02-16T01:02:20.931Z,28.20
2023-02-16T01:04:47.732Z,30.80
2023-02-16T01:07:35.033Z,18.33
2023-02-16T01:10:20.379Z,19.10
2023-02-16T01:12:47.099Z,21.93
2023-02-16T01:15:16.237Z,18.77
2023-02-16T01:17:42.936Z,21.00
2023-02-16T01:20:22.136Z,26.43
2023-02-16T01:22:48.881Z,41.70
2023-02-16T01:25:15.921Z,19.83
2023-02-16T01:27:43.280Z,20.53
2023-02-16T01:30:16.360Z,24.70
2023-02-16T01:32:43.116Z,20.77
2023-02-16T01:35:10.559Z,20.80
2023-02-16T01:37:37.238Z,24.93
2023-02-16T01:40:04.235Z,27.37
2023-02-16T01:42:49.713Z,24.97
2023-02-16T01:45:26.590Z,20.07
2023-02-16T01:47:56.018Z,22.20
2023-02-16T01:50:30.740Z,18.73
2023-02-16T01:53:02.107Z,22.27
2023-02-16T01:55:31.242Z,23.50
2023-02-16T01:58:19.569Z,22.23
2023-02-16T02:00:49.205Z,23.27
2023-02-16T02:03:38.696Z,35.93
2023-02-16T02:06:12.470Z,21.80
2023-02-16T02:08:45.173Z,23.43
2023-02-16T02:11:20.512Z,28.73
2023-02-16T02:14:00.905Z,23.43
2023-02-16T02:16:28.481Z,23.33
2023-02-16T02:18:55.290Z,22.20
2023-02-16T02:22:31.214Z,20.23
2023-02-16T02:25:19.723Z,21.97
2023-02-16T02:28:24.167Z,27.37
2023-02-16T02:31:18.851Z,21.27
2023-02-16T02:33:54.570Z,39.20
2023-02-16T02:36:36.245Z,20.77
2023-02-16T02:39:32.615Z,23.80
2023-02-16T02:42:18.479Z,22.50
2023-02-16T02:44:55.381Z,23.23
2023-02-16T02:47:22.071Z,18.83
2023-02-16T02:49:51.088Z,19.57
2023-02-16T02:52:18.511Z,21.73
2023-02-16T02:55:06.272Z,19.53
2023-02-16T02:57:57.352Z,22.03
2023-02-16T03:00:41.293Z,25.87
2023-02-16T03:03:23.166Z,37.33
2023-02-16T03:05:57.100Z,21.03
2023-02-16T03:08:26.871Z,18.20
2023-02-16T03:11:16.822Z,19.10
2023-02-16T03:13:47.856Z,18.93
2023-02-16T03:16:21.542Z,18.20
2023-02-16T03:19:07.429Z,16.93
2023-02-16T03:21:54.292Z,19.63
2023-02-16T03:24:47.159Z,24.67
2023-02-16T03:27:38.652Z,19.23
2023-02-16T03:30:08.045Z,19.27
2023-02-16T03:32:35.032Z,17.37
2023-02-16T03:35:01.861Z,35.47
2023-02-16T03:37:28.530Z,23.90
2023-02-16T03:40:13.874Z,15.23
2023-02-16T03:42:47.776Z,17.20
2023-02-16T03:45:14.425Z,16.93
2023-02-16T03:47:41.052Z,15.13
2023-02-16T03:50:08.140Z,14.93
2023-02-16T03:52:34.774Z,14.30
2023-02-16T03:55:01.418Z,15.97
2023-02-16T03:57:28.156Z,14.30
2023-02-16T03:59:54.854Z,20.30
2023-02-16T04:02:21.654Z,13.97
2023-02-16T04:04:48.358Z,14.80
2023-02-16T04:07:15.004Z,14.20
2023-02-16T04:09:41.681Z,15.87
2023-02-16T04:12:27.782Z,14.63
2023-02-16T04:14:54.462Z,14.63
2023-02-16T04:17:21.093Z,14.47
2023-02-16T04:19:47.736Z,13.23
2023-02-16T04:22:14.476Z,13.13
2023-02-16T04:24:41.137Z,14.20
2023-02-16T04:27:07.927Z,14.03
2023-02-16T04:29:34.562Z,13.37
2023-02-16T04:32:01.318Z,12.00
2023-02-16T04:34:27.990Z,11.83
2023-02-16T04:36:54.602Z,11.73
2023-02-16T04:39:21.785Z,11.87
2023-02-16T04:41:48.409Z,11.93
2023-02-16T04:44:15.100Z,13.30
2023-02-16T04:46:41.847Z,13.20
2023-02-16T04:49:08.544Z,11.73
2023-02-16T04:51:35.217Z,12.77
2023-02-16T04:54:01.939Z,12.20
2023-02-16T04:56:28.622Z,12.10
2023-02-16T04:58:56.425Z,12.33
2023-02-16T05:01:26.105Z,12.50
2023-02-16T05:03:53.310Z,12.20
2023-02-16T05:06:20.467Z,12.60
2023-02-16T05:08:47.256Z,13.47
2023-02-16T05:11:33.017Z,13.07
2023-02-16T05:14:18.976Z,14.93
2023-02-16T05:16:46.350Z,14.27
2023-02-16T05:19:13.760Z,13.60
2023-02-16T05:21:40.463Z,12.93
2023-02-16T05:24:11.738Z,13.13
2023-02-16T05:26:42.138Z,12.33
2023-02-16T05:29:08.896Z,12.90
2023-02-16T05:31:35.645Z,12.30
2023-02-16T05:34:02.380Z,16.07
2023-02-16T05:36:29.092Z,15.53
2023-02-16T05:38:56.748Z,16.47
2023-02-16T05:41:23.517Z,13.83
2023-02-16T05:44:01.671Z,13.50
2023-02-16T05:46:29.607Z,16.73
2023-02-16T05:48:56.331Z,18.00
2023-02-16T05:51:23.778Z,19.17
2023-02-16T05:53:50.729Z,16.93
2023-02-16T05:56:18.298Z,20.50
2023-02-16T05:58:45.195Z,18.70
2023-02-16T06:01:12.380Z,17.60
2023-02-16T06:03:39.138Z,18.20
2023-02-16T06:06:06.467Z,18.47
2023-02-16T06:08:33.887Z,20.00
2023-02-16T06:11:00.658Z,28.57
2023-02-16T06:13:27.454Z,27.53
2023-02-16T06:15:56.237Z,28.07
2023-02-16T06:18:24.350Z,28.00
2023-02-16T06:20:51.228Z,27.40
2023-02-16T06:23:18.188Z,22.90
2023-02-16T06:25:48.763Z,26.93
2023-02-16T06:28:15.978Z,31.83
2023-02-16T06:30:42.661Z,32.83
2023-02-16T06:33:09.533Z,24.37
2023-02-16T06:35:36.173Z,23.00
2023-02-16T06:38:02.859Z,17.23
2023-02-16T06:40:29.567Z,16.30
2023-02-16T06:42:56.276Z,17.47
2023-02-16T06:45:23.002Z,20.20
2023-02-16T06:47:49.629Z,17.20
2023-02-16T06:50:17.671Z,17.93
2023-02-16T06:52:44.561Z,18.57
2023-02-16T06:55:11.469Z,18.77
2023-02-16T06:57:38.157Z,18.87
2023-02-16T07:00:07.572Z,18.93
2023-02-16T07:02:35.638Z,22.43
2023-02-16T07:05:03.281Z,21.27
2023-02-16T07:07:31.026Z,19.50
2023-02-16T07:09:58.219Z,20.13
2023-02-16T07:12:24.957Z,18.27
2023-02-16T07:14:51.558Z,19.30
2023-02-16T07:17:18.208Z,20.03
2023-02-16T07:19:44.866Z,20.43
2023-02-16T07:22:12.120Z,20.73
2023-02-16T07:24:38.789Z,19.97
2023-02-16T07:27:08.591Z,18.80
2023-02-16T07:29:35.463Z,19.80
2023-02-16T07:32:03.790Z,22.90
2023-02-16T07:34:30.914Z,20.50
2023-02-16T07:36:57.864Z,18.83
2023-02-16T07:39:24.724Z,18.80
2023-02-16T07:41:51.357Z,20.77
2023-02-16T07:44:18.000Z,18.83
2023-02-16T07:46:44.744Z,18.83
2023-02-16T07:49:11.401Z,18.10
2023-02-16T07:51:38.057Z,17.97
2023-02-16T07:54:04.855Z,18.47
2023-02-16T07:56:35.413Z,20.60
2023-02-16T07:59:03.756Z,20.13
2023-02-16T08:01:31.562Z,17.47
2023-02-16T08:03:58.336Z,16.53
2023-02-16T08:06:24.972Z,18.03
2023-02-16T08:08:51.717Z,18.23
2023-02-16T08:11:23.853Z,18.80
2023-02-16T08:13:50.953Z,16.07
2023-02-16T08:16:26.716Z,15.60
2023-02-16T08:18:56.245Z,15.20
2023-02-16T08:21:25.788Z,15.77
2023-02-16T08:23:55.382Z,15.07
2023-02-16T08:26:24.617Z,15.20
2023-02-16T08:28:51.669Z,13.87
2023-02-16T08:31:24.733Z,16.83
2023-02-16T08:33:56.494Z,15.07
2023-02-16T08:36:34.850Z,20.30
2023-02-16T08:39:04.166Z,20.00
2023-02-16T08:41:33.657Z,18.93
2023-02-16T08:44:01.048Z,18.60
2023-02-16T08:46:29.550Z,18.67
2023-02-16T08:48:59.604Z,21.57
2023-02-16T08:51:28.910Z,20.00
2023-02-16T08:53:57.103Z,21.33
2023-02-16T08:56:23.874Z,18.90
2023-02-16T08:58:50.641Z,23.40
2023-02-16T09:01:17.695Z,22.60
2023-02-16T09:03:46.218Z,20.97
2023-02-16T09:06:15.570Z,22.73
2023-02-16T09:08:43.214Z,21.10
2023-02-16T09:11:13.198Z,21.77
2023-02-16T09:13:44.689Z,23.37
2023-02-16T09:16:15.574Z,21.23
2023-02-16T09:18:42.614Z,19.33
2023-02-16T09:21:11.919Z,21.60
2023-02-16T09:23:40.540Z,20.20
2023-02-16T09:26:09.601Z,18.80
2023-02-16T09:28:40.144Z,20.80
2023-02-16T09:31:34.222Z,22.93
2023-02-16T09:34:05.841Z,23.90
2023-02-16T09:36:32.567Z,22.30
2023-02-16T09:39:00.010Z,20.60
2023-02-16T09:41:37.763Z,21.73
2023-02-16T09:44:38.108Z,19.80
2023-02-16T09:47:11.282Z,19.70
2023-02-16T09:49:43.963Z,18.50
2023-02-16T09:52:29.509Z,20.00
2023-02-16T09:54:59.389Z,18.20
2023-02-16T09:57:25.965Z,22.80
2023-02-16T10:00:23.316Z,20.23
2023-02-16T10:02:59.290Z,20.27
2023-02-16T10:05:50.834Z,22.00
2023-02-16T10:08:27.554Z,20.00
2023-02-16T10:11:34.489Z,20.17
2023-02-16T10:14:08.275Z,21.00
2023-02-16T10:16:42.685Z,21.40
2023-02-16T10:19:31.066Z,17.90
2023-02-16T10:22:04.530Z,16.97
2023-02-16T10:24:53.297Z,20.03
2023-02-16T10:27:22.774Z,19.60
2023-02-16T10:29:49.488Z,18.07
2023-02-16T10:32:28.897Z,15.67
2023-02-16T10:35:17.480Z,17.27
2023-02-16T10:37:52.646Z,18.20
2023-02-16T10:40:28.747Z,18.73
2023-02-16T10:43:01.042Z,18.87
2023-02-16T10:45:31.932Z,17.40
2023-02-16T10:47:58.933Z,18.37
2023-02-16T10:50:40.859Z,19.97
2023-02-16T10:53:18.965Z,19.57
2023-02-16T10:55:45.789Z,19.73
2023-02-16T10:58:26.971Z,19.10
2023-02-16T11:01:00.643Z,15.93
2023-02-16T11:03:33.386Z,16.10
2023-02-16T11:06:36.422Z,14.33
2023-02-16T11:09:04.545Z,13.97
2023-02-16T11:11:38.502Z,14.67
2023-02-16T11:14:09.431Z,13.00
2023-02-16T11:16:36.203Z,12.93
2023-02-16T11:19:17.743Z,15.80
2023-02-16T11:21:47.879Z,15.17
2023-02-16T11:24:24.756Z,14.57
2023-02-16T11:27:14.572Z,12.70
2023-02-16T11:29:41.398Z,12.20
2023-02-16T11:32:10.556Z,12.20
2023-02-16T11:34:42.905Z,12.13
2023-02-16T11:37:27.426Z,12.77
2023-02-16T11:40:00.369Z,11.83
2023-02-16T11:42:34.888Z,12.27
2023-02-16T11:45:04.324Z,11.70
2023-02-16T11:47:37.504Z,11.67
2023-02-16T11:50:18.926Z,12.13
2023-02-16T11:52:49.562Z,11.00
2023-02-16T11:55:35.967Z,11.03
2023-02-16T11:58:27.626Z,10.63
2023-02-16T12:01:12.982Z,13.73
2023-02-16T12:04:03.819Z,11.27
2023-02-16T12:07:00.507Z,13.00
2023-02-16T12:09:39.218Z,12.30
2023-02-16T12:12:08.699Z,11.30
2023-02-16T12:14:49.402Z,9.30
2023-02-16T12:17:40.742Z,8.50
2023-02-16T12:20:22.083Z,10.50
2023-02-16T12:22:51.242Z,9.90
2023-02-16T12:25:33.402Z,10.50
2023-02-16T12:28:03.167Z,8.17
2023-02-16T12:30:55.245Z,8.77
2023-02-16T12:33:38.548Z,8.83
2023-02-16T12:36:14.427Z,8.47
2023-02-16T12:39:12.767Z,10.33
2023-02-16T12:41:54.051Z,9.60
2023-02-16T12:44:35.873Z,10.53
2023-02-16T12:47:08.091Z,9.63
2023-02-16T12:49:53.653Z,9.77
2023-02-16T12:52:38.872Z,9.77
2023-02-16T12:55:27.551Z,9.43
2023-02-16T12:58:01.555Z,10.03
2023-02-16T13:00:56.073Z,12.20
2023-02-16T13:03:54.302Z,9.53
2023-02-16T13:06:43.868Z,9.02
2023-02-16T13:09:29.047Z,9.98
2023-02-16T13:12:04.875Z,12.25
2023-02-16T13:14:34.826Z,9.00
2023-02-16T13:17:15.948Z,9.45
2023-02-16T13:19:44.532Z,8.93
2023-02-16T13:22:49.795Z,9.00
2023-02-16T13:25:48.907Z,9.35
2023-02-16T13:28:46.029Z,9.00
2023-02-16T13:31:35.418Z,8.75
2023-02-16T13:34:02.513Z,8.93
2023-02-16T13:36:46.277Z,7.93
2023-02-16T13:39:34.656Z,7.40
2023-02-16T13:42:19.518Z,9.20
2023-02-16T13:44:56.035Z,8.93
2023-02-16T13:47:31.059Z,7.70
2023-02-16T13:50:00.327Z,9.60
2023-02-16T13:52:31.687Z,9.52
2023-02-16T13:55:04.566Z,9.07
2023-02-16T13:57:56.532Z,9.10
2023-02-16T14:00:40.370Z,11.48
2023-02-16T14:03:32.048Z,8.85
2023-02-16T14:06:32.351Z,10.02
2023-02-16T14:09:14.188Z,9.82
2023-02-16T14:11:53.116Z,12.63
2023-02-16T14:14:37.929Z,8.95
2023-02-16T14:17:19.889Z,10.20
2023-02-16T14:20:06.878Z,10.50
2023-02-16T14:22:45.442Z,9.55
2023-02-16T14:25:23.970Z,9.57
2023-02-16T14:28:02.664Z,8.55
2023-02-16T14:30:47.099Z,8.15
2023-02-16T14:33:16.782Z,9.27
2023-02-16T14:35:58.403Z,10.98
2023-02-16T14:38:43.685Z,11.57
2023-02-16T14:41:22.680Z,10.40
2023-02-16T14:44:02.322Z,8.77
2023-02-16T14:46:59.126Z,8.65
2023-02-16T14:49:55.146Z,7.03
2023-02-16T14:52:41.091Z,10.63
2023-02-16T14:55:45.953Z,10.43
2023-02-16T14:58:31.555Z,10.93
2023-02-16T15:01:10.019Z,9.77
2023-02-16T15:03:46.313Z,8.85
2023-02-16T15:06:37.182Z,8.52
2023-02-16T15:09:13.756Z,7.57
2023-02-16T15:12:12.034Z,10.55
2023-02-16T15:15:04.522Z,8.98
2023-02-16T15:17:44.903Z,8.13
2023-02-16T15:20:24.956Z,8.93
2023-02-16T15:22:54.371Z,9.25
2023-02-16T15:25:27.655Z,7.10
2023-02-16T15:28:27.843Z,7.40
2023-02-16T15:30:58.366Z,7.63
2023-02-16T15:33:32.516Z,10.38
2023-02-16T15:36:01.687Z,10.35
2023-02-16T15:39:04.147Z,9.63
2023-02-16T15:41:38.292Z,8.25
2023-02-16T15:44:07.564Z,11.13
2023-02-16T15:46:40.453Z,8.82
2023-02-16T15:49:14.352Z,8.63
2023-02-16T15:51:43.073Z,7.97
2023-02-16T15:54:35.569Z,7.13
2023-02-16T15:57:06.952Z,8.00
2023-02-16T15:59:38.760Z,9.00
2023-02-16T16:02:13.925Z,7.65
2023-02-16T16:04:42.390Z,7.97
2023-02-16T16:07:14.414Z,7.10
2023-02-16T16:09:42.499Z,7.10
2023-02-16T16:12:13.625Z,8.38
2023-02-16T16:14:48.458Z,8.23
2023-02-16T16:17:17.111Z,7.00
2023-02-16T16:19:43.755Z,8.48
2023-02-16T16:22:34.451Z,6.60
2023-02-16T16:25:02.001Z,9.57
2023-02-16T16:27:32.520Z,8.85
2023-02-16T16:30:28.864Z,9.43
2023-02-16T16:33:08.565Z,8.65
2023-02-16T16:35:44.232Z,8.25
2023-02-16T16:38:26.819Z,9.23
2023-02-16T16:41:03.420Z,7.00
2023-02-16T16:43:46.742Z,11.70
2023-02-16T16:46:24.906Z,7.10
2023-02-16T16:48:59.979Z,7.47
2023-02-16T16:51:31.384Z,8.40
2023-02-16T16:54:04.205Z,7.63
2023-02-16T16:56:35.617Z,9.65
2023-02-16T16:59:02.646Z,7.05
2023-02-16T17:01:30.061Z,7.30
2023-02-16T17:03:59.699Z,8.60
2023-02-16T17:06:27.506Z,7.33
2023-02-16T17:08:55.211Z,7.50
2023-02-16T17:11:34.572Z,9.50
2023-02-16T17:14:20.499Z,11.00
2023-02-16T17:16:50.800Z,7.83
2023-02-16T17:19:23.415Z,8.07
2023-02-16T17:21:50.094Z,7.97
2023-02-16T17:24:16.938Z,8.60
2023-02-16T17:26:43.743Z,9.02
2023-02-16T17:29:10.676Z,8.05
2023-02-16T17:31:37.527Z,7.97
2023-02-16T17:34:04.563Z,9.30
2023-02-16T17:36:32.320Z,8.93
2023-02-16T17:38:58.983Z,7.32
2023-02-16T17:41:28.330Z,9.43
2023-02-16T17:43:55.165Z,7.95
2023-02-16T17:46:23.527Z,9.90
2023-02-16T17:48:53.808Z,13.30
2023-02-16T17:51:22.499Z,12.63
2023-02-16T17:53:49.282Z,9.77
2023-02-16T17:56:17.885Z,9.90
2023-02-16T17:58:44.855Z,10.55
2023-02-16T18:01:14.813Z,9.53
2023-02-16T18:03:41.842Z,7.63
2023-02-16T18:06:13.700Z,8.80
2023-02-16T18:08:40.799Z,8.33
2023-02-16T18:11:07.493Z,7.53
2023-02-16T18:13:34.217Z,7.30
2023-02-16T18:16:03.846Z,10.90
2023-02-16T18:18:32.806Z,8.80
2023-02-16T18:20:59.574Z,9.07
2023-02-16T18:23:26.252Z,8.40
2023-02-16T18:25:53.144Z,82.30
2023-02-16T18:28:24.874Z,31.33
2023-02-16T18:30:51.497Z,48.93
2023-02-16T18:33:23.786Z,12.53
2023-02-16T18:35:56.268Z,9.87
2023-02-16T18:38:24.012Z,8.97
2023-02-16T18:40:53.295Z,13.43
2023-02-16T18:43:20.992Z,10.70
2023-02-16T18:45:47.986Z,6.50
2023-02-16T18:48:15.125Z,11.07
2023-02-16T18:50:41.835Z,7.40
2023-02-16T18:53:08.533Z,8.33
2023-02-16T18:55:35.613Z,8.80
2023-02-16T18:58:07.640Z,5.30
2023-02-16T19:00:35.224Z,5.27
2023-02-16T19:03:02.990Z,5.97
2023-02-16T19:05:30.114Z,6.37
2023-02-16T19:07:56.926Z,6.43
2023-02-16T19:10:24.941Z,6.17
2023-02-16T19:12:51.694Z,5.97
2023-02-16T19:15:18.418Z,5.07
2023-02-16T19:17:45.084Z,6.30
2023-02-16T19:20:16.649Z,5.73
2023-02-16T19:22:43.683Z,6.27
2023-02-16T19:25:10.358Z,6.95
2023-02-16T19:27:36.953Z,7.00
2023-02-16T19:30:04.661Z,7.30
2023-02-16T19:32:31.339Z,5.77
2023-02-16T19:34:58.031Z,5.83
2023-02-16T19:37:24.786Z,7.17
2023-02-16T19:39:51.625Z,6.47
2023-02-16T19:42:18.262Z,6.40
2023-02-16T19:44:44.875Z,5.97
2023-02-16T19:47:11.542Z,6.30
2023-02-16T19:49:38.523Z,8.45
2023-02-16T19:52:05.532Z,7.17
2023-02-16T19:54:34.974Z,6.57
2023-02-16T19:57:02.688Z,7.23
2023-02-16T19:59:30.366Z,8.85
2023-02-16T20:01:58.969Z,8.48
2023-02-16T20:04:26.021Z,7.72
2023-02-16T20:06:54.460Z,9.30
2023-02-16T20:09:21.936Z,7.33
2023-02-16T20:11:48.822Z,6.77
2023-02-16T20:14:15.449Z,6.72
2023-02-16T20:16:42.427Z,6.77
2023-02-16T20:19:09.120Z,7.43
2023-02-16T20:21:35.909Z,8.30
2023-02-16T20:24:05.459Z,9.00
2023-02-16T20:26:38.757Z,8.05
2023-02-16T20:29:07.743Z,7.80
2023-02-16T20:31:41.198Z,7.87
2023-02-16T20:34:09.036Z,8.55
2023-02-16T20:36:37.138Z,9.00
2023-02-16T20:39:05.452Z,9.77
2023-02-16T20:41:32.188Z,7.90
2023-02-16T20:43:59.272Z,9.35
2023-02-16T20:46:26.054Z,9.57
2023-02-16T20:48:52.882Z,8.40
2023-02-16T20:51:20.209Z,10.27
2023-02-16T20:53:46.989Z,8.77
2023-02-16T20:56:21.298Z,9.63
2023-02-16T20:58:49.645Z,9.90
2023-02-16T21:01:26.331Z,7.77
2023-02-16T21:03:55.552Z,10.40
2023-02-16T21:06:22.710Z,9.50
2023-02-16T21:08:49.348Z,9.13
2023-02-16T21:11:16.779Z,9.63
2023-02-16T21:13:43.867Z,9.40
2023-02-16T21:16:11.424Z,8.38
2023-02-16T21:18:40.415Z,7.30
2023-02-16T21:21:08.180Z,7.78
2023-02-16T21:23:34.940Z,8.63
2023-02-16T21:26:05.978Z,7.55
2023-02-16T21:28:33.574Z,8.18
2023-02-16T21:31:06.039Z,8.63
2023-02-16T21:33:33.381Z,7.53
2023-02-16T21:36:09.028Z,7.72
2023-02-16T21:38:36.341Z,10.73
2023-02-16T21:41:24.061Z,8.05
2023-02-16T21:43:52.558Z,7.63
2023-02-16T21:46:19.289Z,7.67
2023-02-16T21:48:48.948Z,10.65
2023-02-16T21:51:21.969Z,9.97
2023-02-16T21:53:48.807Z,6.67
2023-02-16T21:56:23.641Z,7.27
2023-02-16T21:58:50.438Z,8.93
2023-02-16T22:01:28.964Z,7.70
2023-02-16T22:03:58.535Z,7.40
2023-02-16T22:06:28.417Z,7.83
2023-02-16T22:08:55.112Z,8.37
2023-02-16T22:11:22.035Z,6.57
2023-02-16T22:13:53.547Z,8.23
2023-02-16T22:16:20.658Z,7.50
2023-02-16T22:18:47.866Z,6.77
2023-02-16T22:21:15.430Z,8.13
2023-02-16T22:23:42.290Z,7.50
2023-02-16T22:26:19.351Z,7.90
2023-02-16T22:28:45.949Z,8.40
2023-02-16T22:31:12.740Z,7.03
2023-02-16T22:33:39.366Z,6.57
2023-02-16T22:36:13.734Z,6.63
2023-02-16T22:38:42.024Z,6.57
2023-02-16T22:41:09.759Z,7.17
2023-02-16T22:43:37.382Z,6.68
2023-02-16T22:46:09.632Z,6.70
2023-02-16T22:48:36.779Z,7.10
2023-02-16T22:51:05.758Z,6.13
2023-02-16T22:53:32.824Z,8.13
2023-02-16T22:55:59.600Z,6.53
2023-02-16T22:58:27.344Z,7.07
2023-02-16T23:00:54.096Z,7.47
2023-02-16T23:03:20.759Z,7.30
2023-02-16T23:05:47.675Z,8.27
2023-02-16T23:08:14.442Z,6.83
2023-02-16T23:10:59.592Z,7.60
2023-02-16T23:13:28.451Z,8.47
2023-02-16T23:15:56.260Z,7.00
2023-02-16T23:18:24.015Z,7.87
2023-02-16T23:20:50.786Z,6.60
2023-02-16T23:23:17.459Z,6.80
2023-02-16T23:25:49.302Z,7.90
2023-02-16T23:28:16.094Z,6.43
2023-02-16T23:30:45.402Z,6.90
2023-02-16T23:33:13.570Z,7.77
2023-02-16T23:35:41.894Z,8.50
2023-02-16T23:38:13.365Z,7.33
2023-02-16T23:40:40.622Z,8.27
2023-02-16T23:43:07.833Z,5.90
2023-02-16T23:45:35.317Z,6.30
2023-02-16T23:48:02.077Z,5.80
2023-02-16T23:50:28.783Z,6.70
2023-02-16T23:52:55.512Z,6.00
2023-02-16T23:55:22.201Z,6.73
2023-02-16T23:57:48.865Z,5.97
